createdAt,value
2023-04-04T00:01:56.024Z,101537.03
2023-04-04T00:04:23.670Z,101537.13
2023-04-04T00:06:51.898Z,101539.50
2023-04-04T00:09:19.249Z,101547.44
2023-04-04T00:11:47.884Z,101538.66
2023-04-04T00:14:15.158Z,101535.13
2023-04-04T00:16:42.419Z,101529.25
2023-04-04T00:19:11.630Z,101526.41
2023-04-04T00:21:38.891Z,101537.13
2023-04-04T00:24:06.694Z,101525.31
2023-04-04T00:26:34.504Z,101521.59
2023-04-04T00:29:03.218Z,101527.28
2023-04-04T00:31:30.589Z,101522.84
2023-04-04T00:33:57.864Z,101527.38
2023-04-04T00:36:25.268Z,101523.59
2023-04-04T00:38:52.513Z,101528.03
2023-04-04T00:41:19.814Z,101523.66
2023-04-04T00:43:47.669Z,101517.50
2023-04-04T00:46:18.807Z,101517.47
2023-04-04T00:48:46.513Z,101522.97
2023-04-04T00:51:14.000Z,101512.47
2023-04-04T00:53:41.890Z,101515.13
2023-04-04T00:56:10.105Z,101518.63
2023-04-04T00:58:37.532Z,101510.63
2023-04-04T01:01:04.953Z,101515.25
2023-04-04T01:03:33.950Z,101506.66
2023-04-04T01:06:02.516Z,101511.09
2023-04-04T01:08:30.649Z,101512.91
2023-04-04T01:10:58.365Z,101505.03
2023-04-04T01:13:26.670Z,101501.47
2023-04-04T01:15:54.033Z,101515.47
2023-04-04T01:18:22.446Z,101507.13
2023-04-04T01:20:55.558Z,101505.22
2023-04-04T01:23:25.311Z,101498.41
2023-04-04T01:26:02.580Z,101503.50
2023-04-04T01:28:29.845Z,101503.59
2023-04-04T01:30:58.410Z,101501.13
2023-04-04T01:33:29.163Z,101502.06
2023-04-04T01:36:02.899Z,101497.59
2023-04-04T01:38:34.606Z,101495.00
2023-04-04T01:41:04.250Z,101494.88
2023-04-04T01:43:31.821Z,101499.25
2023-04-04T01:45:59.400Z,101492.34
2023-04-04T01:48:27.225Z,101492.34
2023-04-04T01:50:54.603Z,101494.13
2023-04-04T01:53:22.023Z,101481.88
2023-04-04T01:55:49.336Z,101478.81
2023-04-04T01:58:18.285Z,101483.03
2023-04-04T02:00:45.825Z,101469.47
2023-04-04T02:03:13.113Z,101470.38
2023-04-04T02:05:40.916Z,101468.97
2023-04-04T02:08:08.315Z,101467.97
2023-04-04T02:10:35.836Z,101465.31
2023-04-04T02:13:03.425Z,101472.56
2023-04-04T02:15:32.032Z,101468.13
2023-04-04T02:18:01.763Z,101464.63
2023-04-04T02:20:29.692Z,101464.84
2023-04-04T02:22:57.130Z,101470.25
2023-04-04T02:25:25.401Z,101465.50
2023-04-04T02:27:52.755Z,101458.38
2023-04-04T02:30:20.371Z,101462.22
2023-04-04T02:32:50.229Z,101464.03
2023-04-04T02:35:17.904Z,101458.41
2023-04-04T02:37:45.999Z,101455.84
2023-04-04T02:40:13.848Z,101456.41
2023-04-04T02:42:43.146Z,101454.72
2023-04-04T02:45:11.407Z,101454.28
2023-04-04T02:47:38.722Z,101459.66
2023-04-04T02:50:08.402Z,101457.16
2023-04-04T02:52:35.649Z,101458.38
2023-04-04T02:55:02.930Z,101457.53
2023-04-04T02:57:30.565Z,101454.91
2023-04-04T02:59:57.842Z,101457.75
2023-04-04T03:02:25.732Z,101455.97
2023-04-04T03:04:53.260Z,101453.97
2023-04-04T03:07:22.793Z,101458.69
2023-04-04T03:09:50.135Z,101461.41
2023-04-04T03:12:20.741Z,101461.53
2023-04-04T03:14:48.189Z,101465.97
2023-04-04T03:17:15.712Z,101467.06
2023-04-04T03:19:43.078Z,101466.16
2023-04-04T03:22:10.650Z,101461.66
2023-04-04T03:24:40.213Z,101459.59
2023-04-04T03:27:07.941Z,101460.63
2023-04-04T03:29:35.333Z,101460.59
2023-04-04T03:32:02.944Z,101459.75
2023-04-04T03:34:31.875Z,101460.47
2023-04-04T03:36:59.195Z,101460.63
2023-04-04T03:39:29.408Z,101462.19
2023-04-04T03:41:58.317Z,101456.13
2023-04-04T03:44:25.980Z,101462.13
2023-04-04T03:46:53.264Z,101446.53
2023-04-04T03:49:20.522Z,101456.94
2023-04-04T03:51:48.543Z,101457.03
2023-04-04T03:54:15.806Z,101450.84
2023-04-04T03:56:43.108Z,101443.81
2023-04-04T03:59:12.549Z,101452.44
2023-04-04T04:01:39.845Z,101448.84
2023-04-04T04:04:07.957Z,101443.66
2023-04-04T04:06:35.361Z,101447.97
2023-04-04T04:09:03.256Z,101448.03
2023-04-04T04:11:30.545Z,101450.09
2023-04-04T04:13:58.088Z,101451.69
2023-04-04T04:16:27.859Z,101455.25
2023-04-04T04:18:55.416Z,101457.47
2023-04-04T04:21:22.662Z,101451.41
2023-04-04T04:23:49.957Z,101451.56
2023-04-04T04:26:17.209Z,101451.63
2023-04-04T04:28:44.505Z,101450.59
2023-04-04T04:31:12.309Z,101462.19
2023-04-04T04:33:41.199Z,101456.75
2023-04-04T04:36:08.838Z,101457.53
2023-04-04T04:38:36.686Z,101463.16
2023-04-04T04:41:03.990Z,101453.31
2023-04-04T04:43:31.272Z,101464.81
2023-04-04T04:45:58.676Z,101466.69
2023-04-04T04:48:25.951Z,101455.81
2023-04-04T04:50:54.622Z,101457.75
2023-04-04T04:53:22.103Z,101466.56
2023-04-04T04:55:52.141Z,101459.53
2023-04-04T04:58:21.219Z,101456.81
2023-04-04T05:00:48.502Z,101452.13
2023-04-04T05:03:15.833Z,101460.97
2023-04-04T05:05:43.472Z,101458.25
2023-04-04T05:08:12.096Z,101462.81
2023-04-04T05:10:39.506Z,101461.03
2023-04-04T05:13:06.897Z,101471.69
2023-04-04T05:15:34.160Z,101473.41
2023-04-04T05:18:01.888Z,101473.03
2023-04-04T05:20:29.597Z,101476.56
2023-04-04T05:22:56.878Z,101474.84
2023-04-04T05:25:27.098Z,101486.31
2023-04-04T05:27:55.679Z,101481.94
2023-04-04T05:30:23.412Z,101486.25
2023-04-04T05:32:51.756Z,101486.13
2023-04-04T05:35:19.134Z,101490.88
2023-04-04T05:37:46.525Z,101493.00
2023-04-04T05:40:17.335Z,101489.81
2023-04-04T05:42:54.398Z,101486.94
2023-04-04T05:45:21.698Z,101489.31
2023-04-04T05:47:49.052Z,101494.06
2023-04-04T05:50:16.610Z,101485.91
2023-04-04T05:52:43.956Z,101491.59
2023-04-04T05:55:11.242Z,101496.97
2023-04-04T05:57:38.507Z,101494.13
2023-04-04T06:00:09.557Z,101494.53
2023-04-04T06:02:36.984Z,101494.22
2023-04-04T06:05:04.440Z,101499.19
2023-04-04T06:07:31.695Z,101492.19
2023-04-04T06:09:58.937Z,101499.69
2023-04-04T06:12:26.227Z,101497.41
2023-04-04T06:14:53.549Z,101496.03
2023-04-04T06:17:22.143Z,101491.69
2023-04-04T06:19:49.383Z,101497.28
2023-04-04T06:22:17.600Z,101490.75
2023-04-04T06:24:45.021Z,101485.81
2023-04-04T06:27:12.541Z,101486.66
2023-04-04T06:29:39.840Z,101490.97
2023-04-04T06:32:07.142Z,101488.22
2023-04-04T06:34:35.869Z,101480.13
2023-04-04T06:37:03.493Z,101485.72
2023-04-04T06:39:31.450Z,101480.19
2023-04-04T06:41:58.815Z,101491.88
2023-04-04T06:44:26.172Z,101486.03
2023-04-04T06:46:53.753Z,101488.19
2023-04-04T06:49:21.033Z,101489.97
2023-04-04T06:51:50.704Z,101484.47
2023-04-04T06:54:18.162Z,101491.66
2023-04-04T06:56:45.754Z,101489.41
2023-04-04T06:59:13.149Z,101487.56
2023-04-04T07:01:40.517Z,101488.81
2023-04-04T07:04:07.799Z,101482.63
2023-04-04T07:06:35.055Z,101490.59
2023-04-04T07:09:05.833Z,101481.34
2023-04-04T07:11:34.368Z,101474.28
2023-04-04T07:14:01.640Z,101481.09
2023-04-04T07:16:28.941Z,101472.22
2023-04-04T07:18:56.585Z,101468.38
2023-04-04T07:21:24.704Z,101469.72
2023-04-04T07:23:52.018Z,101465.69
2023-04-04T07:26:21.317Z,101469.50
2023-04-04T07:28:48.596Z,101476.63
2023-04-04T07:31:15.853Z,101474.72
2023-04-04T07:33:43.163Z,101467.63
2023-04-04T07:36:10.833Z,101467.50
2023-04-04T07:38:38.113Z,101470.28
2023-04-04T07:41:05.833Z,101465.09
2023-04-04T07:43:34.446Z,101467.97
2023-04-04T07:46:01.928Z,101462.38
2023-04-04T07:48:29.334Z,101468.97
2023-04-04T07:50:56.626Z,101460.41
2023-04-04T07:53:23.926Z,101475.66
2023-04-04T07:55:51.223Z,101479.28
2023-04-04T07:58:18.798Z,101468.25
2023-04-04T08:00:47.412Z,101476.41
2023-04-04T08:03:14.811Z,101470.03
2023-04-04T08:05:42.267Z,101470.03
2023-04-04T08:08:09.536Z,101468.84
2023-04-04T08:10:37.006Z,101470.69
2023-04-04T08:13:05.752Z,101464.25
2023-04-04T08:15:33.035Z,101466.88
2023-04-04T08:18:01.702Z,101463.78
2023-04-04T08:20:29.217Z,101454.50
2023-04-04T08:22:56.490Z,101447.28
2023-04-04T08:25:24.008Z,101452.13
2023-04-04T08:27:51.360Z,101469.69
2023-04-04T08:30:18.737Z,101455.81
2023-04-04T08:32:46.144Z,101452.66
2023-04-04T08:35:14.999Z,101443.16
2023-04-04T08:37:44.897Z,101440.63
2023-04-04T08:40:12.577Z,101453.91
2023-04-04T08:42:41.618Z,101451.88
2023-04-04T08:45:10.397Z,101453.75
2023-04-04T08:47:38.487Z,101451.75
2023-04-04T08:50:07.389Z,101454.53
2023-04-04T08:52:36.175Z,101441.38
2023-04-04T08:55:05.202Z,101444.50
2023-04-04T08:57:33.391Z,101438.78
2023-04-04T09:00:02.451Z,101439.03
2023-04-04T09:02:34.647Z,101432.44
2023-04-04T09:05:07.018Z,101443.81
2023-04-04T09:07:38.596Z,101438.41
2023-04-04T09:10:08.747Z,101431.34
2023-04-04T09:12:37.003Z,101430.19
2023-04-04T09:15:04.681Z,101436.16
2023-04-04T09:17:32.497Z,101425.41
2023-04-04T09:20:04.035Z,101429.59
2023-04-04T09:22:31.840Z,101429.88
2023-04-04T09:25:00.456Z,101430.25
2023-04-04T09:27:28.050Z,101420.72
2023-04-04T09:29:56.190Z,101425.72
2023-04-04T09:32:25.089Z,101430.34
2023-04-04T09:34:52.559Z,101429.34
2023-04-04T09:37:19.867Z,101431.97
2023-04-04T09:39:47.463Z,101425.22
2023-04-04T09:42:16.732Z,101430.50
2023-04-04T09:44:44.597Z,101429.38
2023-04-04T09:49:55.322Z,101425.09
2023-04-04T09:52:22.580Z,101420.22
2023-04-04T09:54:57.352Z,101426.56
2023-04-04T09:57:26.589Z,101429.44
2023-04-04T09:59:53.989Z,101421.16
2023-04-04T10:02:21.491Z,101419.66
2023-04-04T10:04:51.035Z,101421.25
2023-04-04T10:07:23.962Z,101427.63
2023-04-04T10:09:52.751Z,101415.97
2023-04-04T10:12:22.897Z,101416.59
2023-04-04T10:14:56.615Z,101413.06
2023-04-04T10:17:25.099Z,101405.31
2023-04-04T10:19:53.990Z,101398.47
2023-04-04T10:22:22.078Z,101410.72
2023-04-04T10:24:49.421Z,101410.75
2023-04-04T10:27:16.837Z,101409.75
2023-04-04T10:29:44.104Z,101416.16
2023-04-04T10:32:17.405Z,101423.91
2023-04-04T10:34:48.515Z,101416.88
2023-04-04T10:37:20.672Z,101417.16
2023-04-04T10:39:53.329Z,101412.88
2023-04-04T10:42:20.804Z,101402.41
2023-04-04T10:44:48.103Z,101404.75
2023-04-04T10:47:19.617Z,101393.59
2023-04-04T10:49:47.720Z,101399.44
2023-04-04T10:52:16.033Z,101389.47
2023-04-04T10:54:44.680Z,101384.22
2023-04-04T10:57:12.584Z,101391.88
2023-04-04T10:59:54.813Z,101390.31
2023-04-04T11:02:44.465Z,101381.06
2023-04-04T11:05:12.535Z,101390.25
2023-04-04T11:07:40.778Z,101377.31
2023-04-04T11:10:14.406Z,101383.88
2023-04-04T11:12:45.028Z,101384.94
2023-04-04T11:15:13.090Z,101382.88
2023-04-04T11:17:45.147Z,101385.72
2023-04-04T11:20:15.786Z,101382.94
2023-04-04T11:22:43.819Z,101374.50
2023-04-04T11:25:30.491Z,101374.94
2023-04-04T11:27:58.482Z,101372.03
2023-04-04T11:30:26.333Z,101372.75
2023-04-04T11:33:06.671Z,101375.50
2023-04-04T11:35:39.003Z,101365.69
2023-04-04T11:38:13.176Z,101365.63
2023-04-04T11:40:41.245Z,101363.44
2023-04-04T11:43:09.826Z,101359.28
2023-04-04T11:45:39.230Z,101349.13
2023-04-04T11:48:09.760Z,101352.88
2023-04-04T11:50:39.032Z,101337.59
2023-04-04T11:53:06.859Z,101327.09
2023-04-04T11:55:34.491Z,101341.38
2023-04-04T11:58:12.122Z,101338.81
2023-04-04T12:00:41.349Z,101335.47
2023-04-04T12:03:11.654Z,101347.25
2023-04-04T12:05:39.903Z,101337.41
2023-04-04T12:08:08.352Z,101335.97
2023-04-04T12:10:36.488Z,101322.78
2023-04-04T12:13:07.144Z,101316.88
2023-04-04T12:15:35.161Z,101323.31
2023-04-04T12:18:02.986Z,101328.34
2023-04-04T12:20:32.302Z,101325.88
2023-04-04T12:22:59.767Z,101330.88
2023-04-04T12:25:33.659Z,101326.38
2023-04-04T12:28:02.746Z,101316.41
2023-04-04T12:30:30.285Z,101312.78
2023-04-04T12:32:58.197Z,101313.63
2023-04-04T12:35:25.977Z,101309.19
2023-04-04T12:38:07.148Z,101291.97
2023-04-04T12:40:37.212Z,101298.50
2023-04-04T12:43:08.747Z,101293.38
2023-04-04T12:45:40.145Z,101305.91
2023-04-04T12:48:12.895Z,101294.97
2023-04-04T12:50:51.192Z,101307.41
2023-04-04T12:53:29.009Z,101290.56
2023-04-04T12:55:57.963Z,101300.13
2023-04-04T12:58:25.882Z,101287.78
2023-04-04T13:00:55.047Z,101294.56
2023-04-04T13:03:24.327Z,101277.94
2023-04-04T13:05:52.337Z,101281.00
2023-04-04T13:08:19.842Z,101286.81
2023-04-04T13:10:58.175Z,101287.16
2023-04-04T13:13:32.788Z,101284.06
2023-04-04T13:16:00.206Z,101272.47
2023-04-04T13:18:32.522Z,101271.56
2023-04-04T13:20:59.796Z,101296.31
2023-04-04T13:23:27.130Z,101297.09
2023-04-04T13:25:54.382Z,101289.78
2023-04-04T13:28:23.006Z,101293.81
2023-04-04T13:30:52.205Z,101283.22
2023-04-04T13:33:20.014Z,101276.63
2023-04-04T13:35:47.371Z,101269.03
2023-04-04T13:38:14.696Z,101257.69
2023-04-04T13:40:41.938Z,101260.25
2023-04-04T13:43:11.209Z,101258.25
2023-04-04T13:45:39.973Z,101250.84
2023-04-04T13:48:07.579Z,101259.59
2023-04-04T13:50:36.676Z,101253.41
2023-04-04T13:53:03.968Z,101260.75
2023-04-04T13:55:31.322Z,101247.97
2023-04-04T13:57:58.878Z,101251.00
2023-04-04T14:00:26.711Z,101257.44
2023-04-04T14:02:57.204Z,101250.38
2023-04-04T14:05:24.982Z,101241.31
2023-04-04T14:07:52.296Z,101238.47
2023-04-04T14:10:19.766Z,101235.84
2023-04-04T14:12:47.301Z,101237.56
2023-04-04T14:15:14.567Z,101233.03
2023-04-04T14:17:41.917Z,101221.44
2023-04-04T14:20:11.162Z,101223.69
2023-04-04T14:22:38.496Z,101220.53
2023-04-04T14:25:06.199Z,101217.94
2023-04-04T14:27:33.611Z,101222.13
2023-04-04T14:30:00.982Z,101224.97
2023-04-04T14:32:28.547Z,101232.06
2023-04-04T14:34:55.925Z,101239.75
2023-04-04T14:37:24.847Z,101229.22
2023-04-04T14:39:52.307Z,101233.88
2023-04-04T14:42:19.610Z,101238.47
2023-04-04T14:44:47.034Z,101223.13
2023-04-04T14:47:14.290Z,101215.78
2023-04-04T14:49:42.924Z,101208.31
2023-04-04T14:52:10.361Z,101208.50
2023-04-04T14:54:38.974Z,101211.97
2023-04-04T14:57:06.730Z,101213.19
2023-04-04T14:59:34.086Z,101205.09
2023-04-04T15:02:01.773Z,101213.63
2023-04-04T15:04:29.066Z,101215.94
2023-04-04T15:07:00.674Z,101211.66
2023-04-04T15:09:27.955Z,101209.97
2023-04-04T15:11:56.918Z,101217.16
2023-04-04T15:14:24.504Z,101210.19
2023-04-04T15:16:52.207Z,101213.19
2023-04-04T15:19:19.514Z,101198.56
2023-04-04T15:21:46.981Z,101208.78
2023-04-04T15:24:14.275Z,101193.97
2023-04-04T15:26:41.598Z,101198.94
2023-04-04T15:29:10.217Z,101212.56
2023-04-04T15:31:38.138Z,101208.31
2023-04-04T15:34:05.548Z,101216.16
2023-04-04T15:36:34.110Z,101205.47
2023-04-04T15:39:01.442Z,101204.28
2023-04-04T15:41:29.080Z,101204.38
2023-04-04T15:43:56.399Z,101193.69
2023-04-04T15:46:25.088Z,101189.56
2023-04-04T15:48:52.871Z,101201.84
2023-04-04T15:51:21.023Z,101194.22
2023-04-04T15:53:48.310Z,101199.13
2023-04-04T15:56:15.741Z,101199.81
2023-04-04T15:58:43.042Z,101205.88
2023-04-04T16:01:10.346Z,101195.66
2023-04-04T16:03:39.063Z,101199.19
2023-04-04T16:06:12.706Z,101200.38
2023-04-04T16:08:40.447Z,101195.63
2023-04-04T16:11:07.753Z,101200.25
2023-04-04T16:13:35.365Z,101204.09
2023-04-04T16:16:02.777Z,101192.44
2023-04-04T16:18:30.509Z,101192.09
2023-04-04T16:20:59.120Z,101195.09
2023-04-04T16:23:26.428Z,101196.34
2023-04-04T16:25:54.940Z,101195.03
2023-04-04T16:28:22.218Z,101197.66
2023-04-04T16:30:49.533Z,101189.56
2023-04-04T16:33:16.853Z,101191.50
2023-04-04T16:35:44.121Z,101197.78
2023-04-04T16:38:12.732Z,101196.56
2023-04-04T16:40:40.416Z,101186.13
2023-04-04T16:43:08.173Z,101196.97
2023-04-04T16:45:35.609Z,101192.47
2023-04-04T16:48:03.137Z,101197.03
2023-04-04T16:50:30.499Z,101190.91
2023-04-04T16:52:57.745Z,101199.72
2023-04-04T16:55:27.637Z,101198.50
2023-04-04T16:57:55.356Z,101191.94
2023-04-04T17:00:22.699Z,101193.75
2023-04-04T17:02:51.115Z,101186.69
2023-04-04T17:05:18.725Z,101190.63
2023-04-04T17:07:47.254Z,101187.03
2023-04-04T17:10:14.886Z,101192.41
2023-04-04T17:12:43.585Z,101194.22
2023-04-04T17:15:11.338Z,101188.25
2023-04-04T17:17:39.056Z,101190.41
2023-04-04T17:20:07.296Z,101184.13
2023-04-04T17:22:36.247Z,101179.84
2023-04-04T17:25:03.560Z,101182.81
2023-04-04T17:30:23.933Z,101183.88
2023-04-04T17:32:52.327Z,101184.25
2023-04-04T17:35:19.696Z,101191.34
2023-04-04T17:37:46.979Z,101194.31
2023-04-04T17:40:14.357Z,101195.81
2023-04-04T17:42:41.629Z,101196.72
2023-04-04T17:45:09.597Z,101189.41
2023-04-04T17:47:38.288Z,101190.06
2023-04-04T17:50:06.260Z,101202.94
2023-04-04T17:52:33.729Z,101189.22
2023-04-04T17:55:01.185Z,101200.56
2023-04-04T17:57:28.469Z,101187.81
2023-04-04T17:59:55.789Z,101197.97
2023-04-04T18:02:23.072Z,101198.38
2023-04-04T18:04:52.004Z,101199.44
2023-04-04T18:07:19.949Z,101207.69
2023-04-04T18:09:47.330Z,101193.47
2023-04-04T18:12:15.633Z,101198.97
2023-04-04T18:14:42.903Z,101199.44
2023-04-04T18:17:10.780Z,101204.72
2023-04-04T18:19:41.217Z,101204.84
2023-04-04T18:22:10.138Z,101195.09
2023-04-04T18:24:37.463Z,101198.66
2023-04-04T18:27:07.298Z,101196.50
2023-04-04T18:29:34.642Z,101200.59
2023-04-04T18:32:02.647Z,101199.78
2023-04-04T18:34:30.124Z,101202.78
2023-04-04T18:36:57.665Z,101204.50
2023-04-04T18:39:26.413Z,101200.66
2023-04-04T18:41:53.767Z,101206.75
2023-04-04T18:44:22.042Z,101201.69
2023-04-04T18:46:49.439Z,101209.47
2023-04-04T18:49:17.009Z,101205.03
2023-04-04T18:51:44.722Z,101209.88
2023-04-04T18:54:13.992Z,101213.16
2023-04-04T18:56:42.877Z,101199.97
2023-04-04T18:59:10.341Z,101209.50
2023-04-04T19:01:39.148Z,101215.03
2023-04-04T19:04:06.693Z,101211.75
2023-04-04T19:06:34.165Z,101219.44
2023-04-04T19:09:03.935Z,101218.28
2023-04-04T19:11:31.619Z,101210.50
2023-04-04T19:14:00.292Z,101216.59
2023-04-04T19:16:27.752Z,101207.75
2023-04-04T19:18:55.099Z,101211.47
2023-04-04T19:21:22.436Z,101209.66
2023-04-04T19:23:50.000Z,101211.44
2023-04-04T19:26:18.358Z,101214.88
2023-04-04T19:28:46.319Z,101207.78
2023-04-04T19:31:15.860Z,101205.34
2023-04-04T19:33:44.843Z,101205.13
2023-04-04T19:36:12.322Z,101206.19
2023-04-04T19:38:42.210Z,101206.56
2023-04-04T19:41:12.674Z,101206.50
2023-04-04T19:43:42.167Z,101211.13
2023-04-04T19:46:10.352Z,101207.91
2023-04-04T19:48:38.791Z,101202.94
2023-04-04T19:51:09.355Z,101211.25
2023-04-04T19:53:36.923Z,101207.28
2023-04-04T19:56:06.956Z,101216.44
2023-04-04T19:58:34.290Z,101213.28
2023-04-04T20:01:01.610Z,101212.25
2023-04-04T20:03:30.304Z,101210.06
2023-04-04T20:06:11.549Z,101208.28
2023-04-04T20:08:40.940Z,101205.72
2023-04-04T20:11:08.715Z,101210.72
2023-04-04T20:13:36.935Z,101206.81
2023-04-04T20:16:05.425Z,101208.66
2023-04-04T20:18:33.501Z,101206.97
2023-04-04T20:21:12.348Z,101219.09
2023-04-04T20:23:42.697Z,101218.13
2023-04-04T20:26:13.628Z,101213.69
2023-04-04T20:28:41.884Z,101210.44
2023-04-04T20:31:12.254Z,101217.84
2023-04-04T20:33:40.725Z,101207.91
2023-04-04T20:36:13.614Z,101205.94
2023-04-04T20:38:41.666Z,101217.00
2023-04-04T20:41:19.581Z,101210.81
2023-04-04T20:43:52.013Z,101211.38
2023-04-04T20:46:20.153Z,101208.81
2023-04-04T20:48:48.522Z,101209.06
2023-04-04T20:51:23.985Z,101211.59
2023-04-04T20:53:52.200Z,101209.53
2023-04-04T20:56:37.967Z,101217.44
2023-04-04T20:59:07.067Z,101209.63
2023-04-04T21:01:34.631Z,101215.53
2023-04-04T21:04:02.003Z,101211.47
2023-04-04T21:06:31.036Z,101207.28
2023-04-04T21:08:58.322Z,101212.66
2023-04-04T21:11:27.169Z,101212.56
2023-04-04T21:13:55.105Z,101208.81
2023-04-04T21:16:24.459Z,101211.75
2023-04-04T21:18:56.221Z,101206.88
2023-04-04T21:21:23.519Z,101203.56
2023-04-04T21:23:53.419Z,101197.91
2023-04-04T21:26:25.116Z,101198.47
2023-04-04T21:28:52.504Z,101201.31
2023-04-04T21:31:22.041Z,101207.91
2023-04-04T21:33:50.480Z,101197.59
2023-04-04T21:36:19.258Z,101194.34
2023-04-04T21:38:46.818Z,101192.38
2023-04-04T21:41:23.101Z,101195.94
2023-04-04T21:43:50.536Z,101202.22
2023-04-04T21:46:17.985Z,101198.59
2023-04-04T21:48:45.280Z,101197.56
2023-04-04T21:51:12.658Z,101187.41
2023-04-04T21:53:39.949Z,101188.97
2023-04-04T21:56:07.318Z,101194.13
2023-04-04T21:58:36.136Z,101184.94
2023-04-04T22:01:03.503Z,101184.19
2023-04-04T22:03:30.962Z,101182.81
2023-04-04T22:05:58.373Z,101180.13
2023-04-04T22:08:25.845Z,101176.91
2023-04-04T22:10:53.188Z,101178.16
2023-04-04T22:13:22.465Z,101171.34
2023-04-04T22:15:52.349Z,101171.31
2023-04-04T22:18:29.646Z,101169.34
2023-04-04T22:20:57.309Z,101177.16
2023-04-04T22:23:25.328Z,101172.63
2023-04-04T22:25:52.573Z,101170.28
2023-04-04T22:28:24.657Z,101171.66
2023-04-04T22:30:53.290Z,101172.28
2023-04-04T22:33:20.691Z,101171.16
2023-04-04T22:35:48.065Z,101170.03
2023-04-04T22:38:15.433Z,101172.44
2023-04-04T22:40:42.953Z,101163.91
2023-04-04T22:43:10.657Z,101160.78
2023-04-04T22:45:38.053Z,101164.22
2023-04-04T22:48:06.852Z,101157.50
2023-04-04T22:50:35.370Z,101169.25
2023-04-04T22:53:03.461Z,101167.94
2023-04-04T22:55:31.215Z,101168.91
2023-04-04T22:57:58.475Z,101168.13
2023-04-04T23:00:26.093Z,101170.16
2023-04-04T23:02:53.398Z,101162.78
2023-04-04T23:05:22.196Z,101164.44
2023-04-04T23:07:52.525Z,101159.09
2023-04-04T23:10:20.245Z,101157.34
2023-04-04T23:12:48.652Z,101162.94
2023-04-04T23:15:16.179Z,101162.38
2023-04-04T23:17:44.213Z,101164.00
2023-04-04T23:20:11.645Z,101155.06
2023-04-04T23:22:40.514Z,101161.38
2023-04-04T23:25:08.091Z,101152.78
2023-04-04T23:27:35.405Z,101153.22
2023-04-04T23:30:05.034Z,101150.44
2023-04-04T23:32:32.588Z,101147.03
2023-04-04T23:34:59.907Z,101153.41
2023-04-04T23:37:27.354Z,101153.81
2023-04-04T23:39:56.253Z,101149.75
2023-04-04T23:42:23.871Z,101150.59
2023-04-04T23:44:51.259Z,101155.19
2023-04-04T23:47:18.882Z,101155.78
2023-04-04T23:49:46.648Z,101158.94
2023-04-04T23:52:13.967Z,101152.94
2023-04-04T23:54:41.226Z,101142.31
2023-04-04T23:57:09.919Z,101145.13
2023-04-04T23:59:37.198Z,101145.38
